Trout River, Canada
Current Conditions -  °F | °C
As of 7:00 PM on Monday 26 Jan 2015 (Local Time) from CYDF Reporting Station
Light Snow Light Snow  
Wind Chill: -4°   Ceiling: 3400
Heat Index: 12°   Visibility: 6mi
Dew Point:   Wind: 16mph
Humidity: 79%   Direction: 230°SW
Pressure: 30.07"   Gusts: NA
Location:  49.48°N, 58.12°W
Report Text: CYDF 262200Z 23014KT 6SM -SN DRSN SCT010 OVC034 M11/M14 A3007 RMK SC3SC5 /S01/ SLP185
Loading
Personal Weather Stations






























Interactive Weather Map New forecast layout! Learn more

10-Day Weather Forecast

Advertisements
Track Severe Weather on mobile